Аэропорт: Пашковский. Краснодар

ICAO: URKK

METAR:
2024-07-24 16:30:00
URKK 241630Z 22002MPS CAVOK 26/20 Q1005 R23L/CLRD70 NOSIG RMK QFE750
TAF:
2024-07-24 13:47:00
TAF URKK 241347Z 2415/2515 07003G08MPS 9999 SCT040CB 
  TEMPO 2415/2515 01003G08MPS -TSRA BKN020CB